createdAt,value
2019-01-29T00:00:52.177Z,57.24
2019-01-29T00:01:56.398Z,57.24
2019-01-29T00:03:00.876Z,57.27
2019-01-29T00:04:05.154Z,57.31
2019-01-29T00:05:09.503Z,57.38
2019-01-29T00:06:13.480Z,57.40
2019-01-29T00:07:17.700Z,57.46
2019-01-29T00:08:21.938Z,57.46
2019-01-29T00:09:26.409Z,57.46
2019-01-29T00:10:30.649Z,57.49
2019-01-29T00:11:34.623Z,57.57
2019-01-29T00:12:38.527Z,57.68
2019-01-29T00:13:42.507Z,57.72
2019-01-29T00:14:46.495Z,57.64
2019-01-29T00:15:50.475Z,57.61
2019-01-29T00:16:54.447Z,57.60
2019-01-29T00:17:58.425Z,57.60
2019-01-29T00:19:02.905Z,57.58
2019-01-29T00:20:07.085Z,57.60
2019-01-29T00:21:11.236Z,57.63
2019-01-29T00:22:15.378Z,57.65
2019-01-29T00:23:19.605Z,57.67
2019-01-29T00:24:23.825Z,57.69
2019-01-29T00:25:27.739Z,57.71
2019-01-29T00:26:31.790Z,57.70
2019-01-29T00:27:35.763Z,57.68
2019-01-29T00:28:39.919Z,57.63
2019-01-29T00:29:43.904Z,57.63
2019-01-29T00:30:47.941Z,57.62
2019-01-29T00:31:51.856Z,57.55
2019-01-29T00:32:55.835Z,57.52
2019-01-29T00:34:00.123Z,57.54
2019-01-29T00:35:04.804Z,57.52
2019-01-29T00:36:09.030Z,57.53
2019-01-29T00:37:13.035Z,57.48
2019-01-29T00:38:17.037Z,57.43
2019-01-29T00:39:21.321Z,57.33
2019-01-29T00:40:25.905Z,57.19
2019-01-29T00:41:29.886Z,57.17
2019-01-29T00:42:33.793Z,57.16
2019-01-29T00:43:38.141Z,57.13
2019-01-29T00:44:42.370Z,57.03
2019-01-29T00:45:46.379Z,57.05
2019-01-29T00:46:50.360Z,57.10
2019-01-29T00:47:54.374Z,57.08
2019-01-29T00:48:58.695Z,56.99
2019-01-29T00:50:02.680Z,57.00
2019-01-29T00:51:06.967Z,57.05
2019-01-29T00:52:11.191Z,57.11
2019-01-29T00:53:15.503Z,57.07
2019-01-29T00:54:19.995Z,57.09
2019-01-29T00:55:23.983Z,57.02
2019-01-29T00:56:28.305Z,56.84
2019-01-29T00:57:32.508Z,56.70
2019-01-29T00:58:36.495Z,56.67
2019-01-29T00:59:41.168Z,56.71
2019-01-29T01:00:45.743Z,56.75
2019-01-29T01:01:50.692Z,56.83
2019-01-29T01:02:54.811Z,56.91
2019-01-29T01:03:59.088Z,56.68
2019-01-29T01:05:03.818Z,56.67
2019-01-29T01:06:07.895Z,56.69
2019-01-29T01:07:11.888Z,56.71
2019-01-29T01:08:16.041Z,56.79
2019-01-29T01:09:20.024Z,56.74
2019-01-29T01:10:23.932Z,56.61
2019-01-29T01:11:27.908Z,56.65
2019-01-29T01:12:31.902Z,56.77
2019-01-29T01:13:36.050Z,56.78
2019-01-29T01:14:40.031Z,56.75
2019-01-29T01:15:44.008Z,56.81
2019-01-29T01:16:48.154Z,56.82
2019-01-29T01:17:52.143Z,56.82
2019-01-29T01:18:56.050Z,56.87
2019-01-29T01:20:00.023Z,56.95
2019-01-29T01:21:04.331Z,56.97
2019-01-29T01:22:08.625Z,56.98
2019-01-29T01:23:12.935Z,56.98
2019-01-29T01:24:17.243Z,56.79
2019-01-29T01:25:21.219Z,56.76
2019-01-29T01:26:25.460Z,56.83
2019-01-29T01:27:29.748Z,56.90
2019-01-29T01:28:33.966Z,56.97
2019-01-29T01:29:38.289Z,57.00
2019-01-29T01:30:42.263Z,57.12
2019-01-29T01:31:46.172Z,57.24
2019-01-29T01:32:50.507Z,57.36
2019-01-29T01:33:54.422Z,57.42
2019-01-29T01:34:58.585Z,57.42
2019-01-29T01:36:02.590Z,57.39
2019-01-29T01:37:06.590Z,57.27
2019-01-29T01:38:11.088Z,57.29
2019-01-29T01:39:15.068Z,57.36
2019-01-29T01:40:21.798Z,57.30
2019-01-29T01:41:26.027Z,57.16
2019-01-29T01:42:30.435Z,57.13
2019-01-29T01:43:34.418Z,57.11
2019-01-29T01:44:38.640Z,57.11
2019-01-29T01:45:42.601Z,57.05
2019-01-29T01:46:46.586Z,57.05
2019-01-29T01:47:50.676Z,57.07
2019-01-29T01:48:54.647Z,57.09
2019-01-29T01:49:58.625Z,57.10
2019-01-29T01:51:02.671Z,57.05
2019-01-29T01:52:06.571Z,57.01
2019-01-29T01:53:10.752Z,56.98
2019-01-29T01:54:15.222Z,57.00
2019-01-29T01:55:20.045Z,56.91
2019-01-29T01:56:23.941Z,56.82
2019-01-29T01:57:28.438Z,56.71
2019-01-29T01:58:32.676Z,56.57
2019-01-29T01:59:36.848Z,56.55
2019-01-29T02:00:40.919Z,56.61
2019-01-29T02:01:45.156Z,56.72
2019-01-29T02:02:49.131Z,56.81
2019-01-29T02:03:53.242Z,56.74
2019-01-29T02:04:57.216Z,56.46
2019-01-29T02:06:01.796Z,56.34
2019-01-29T02:07:07.254Z,56.37
2019-01-29T02:08:11.678Z,56.33
2019-01-29T02:09:15.750Z,56.40
2019-01-29T02:10:27.715Z,56.25
2019-01-29T02:11:31.895Z,56.15
2019-01-29T02:12:36.248Z,56.10
2019-01-29T02:13:40.204Z,56.02
2019-01-29T02:14:44.845Z,56.08
2019-01-29T02:15:49.151Z,56.10
2019-01-29T02:16:53.325Z,56.06
2019-01-29T02:17:57.671Z,56.14
2019-01-29T02:19:01.612Z,56.16
2019-01-29T02:20:07.205Z,56.10
2019-01-29T02:21:11.302Z,56.10
2019-01-29T02:22:15.648Z,56.17
2019-01-29T02:23:19.924Z,56.21
2019-01-29T02:24:23.943Z,56.15
2019-01-29T02:25:28.235Z,56.21
2019-01-29T02:26:32.545Z,56.01
2019-01-29T02:27:36.565Z,55.96
2019-01-29T02:28:40.569Z,55.96
2019-01-29T02:29:44.854Z,56.06
2019-01-29T02:30:49.187Z,56.06
2019-01-29T02:31:53.470Z,56.00
2019-01-29T02:32:57.461Z,56.06
2019-01-29T02:34:01.784Z,56.15
2019-01-29T02:35:06.301Z,56.13
2019-01-29T02:36:10.601Z,56.08
2019-01-29T02:37:14.847Z,56.03
2019-01-29T02:38:19.121Z,55.94
2019-01-29T02:39:23.686Z,56.00
2019-01-29T02:40:29.080Z,56.03
2019-01-29T02:41:33.401Z,56.09
2019-01-29T02:42:39.523Z,56.07
2019-01-29T02:43:43.478Z,56.02
2019-01-29T02:44:47.829Z,56.04
2019-01-29T02:45:51.830Z,56.05
2019-01-29T02:46:56.445Z,56.06
2019-01-29T02:48:00.447Z,56.08
2019-01-29T02:49:04.866Z,56.04
2019-01-29T02:50:09.684Z,56.00
2019-01-29T02:51:13.992Z,56.04
2019-01-29T02:52:17.987Z,56.08
2019-01-29T02:53:22.295Z,56.13
2019-01-29T02:54:26.815Z,56.13
2019-01-29T02:55:31.303Z,56.09
2019-01-29T02:56:35.294Z,56.02
2019-01-29T02:57:39.372Z,55.95
2019-01-29T02:58:43.537Z,55.86
2019-01-29T02:59:48.449Z,55.83
2019-01-29T03:00:52.752Z,55.94
2019-01-29T03:01:56.750Z,56.05
2019-01-29T03:03:00.674Z,56.07
2019-01-29T03:04:04.757Z,55.93
2019-01-29T03:05:09.729Z,55.77
2019-01-29T03:06:13.974Z,55.71
2019-01-29T03:07:18.235Z,55.72
2019-01-29T03:08:22.235Z,55.72
2019-01-29T03:09:26.754Z,55.61
2019-01-29T03:10:31.016Z,55.59
2019-01-29T03:11:35.867Z,55.47
2019-01-29T03:12:40.112Z,55.54
2019-01-29T03:13:44.110Z,55.66
2019-01-29T03:14:48.370Z,55.78
2019-01-29T03:15:53.364Z,55.76
2019-01-29T03:16:57.863Z,55.84
2019-01-29T03:18:01.852Z,55.88
2019-01-29T03:19:06.102Z,55.96
2019-01-29T03:20:10.704Z,55.93
2019-01-29T03:21:14.944Z,55.98
2019-01-29T03:22:19.184Z,56.10
2019-01-29T03:23:27.574Z,56.15
2019-01-29T03:24:28.897Z,55.99
2019-01-29T03:25:33.675Z,56.01
2019-01-29T03:26:37.917Z,56.11
2019-01-29T03:27:41.918Z,56.16
2019-01-29T03:28:46.204Z,56.23
2019-01-29T03:29:50.642Z,56.28
2019-01-29T03:30:54.919Z,56.32
2019-01-29T03:31:58.768Z,56.37
2019-01-29T03:33:03.021Z,56.40
2019-01-29T03:34:06.988Z,56.42
2019-01-29T03:35:11.844Z,56.39
2019-01-29T03:36:16.169Z,56.37
2019-01-29T03:37:20.459Z,56.34
2019-01-29T03:38:24.767Z,56.36
2019-01-29T03:39:29.077Z,56.34
2019-01-29T03:40:33.385Z,56.35
2019-01-29T03:41:37.848Z,56.37
2019-01-29T03:42:41.825Z,56.27
2019-01-29T03:43:46.049Z,56.28
2019-01-29T03:44:50.022Z,56.14
2019-01-29T03:45:54.209Z,56.24
2019-01-29T03:46:58.282Z,56.37
2019-01-29T03:48:02.719Z,56.46
2019-01-29T03:49:07.028Z,56.52
2019-01-29T03:50:12.191Z,56.60
2019-01-29T03:51:16.835Z,56.65
2019-01-29T03:52:21.076Z,56.69
2019-01-29T03:53:25.203Z,56.76
2019-01-29T03:54:29.697Z,56.80
2019-01-29T03:55:33.666Z,56.80
2019-01-29T03:56:38.238Z,56.77
2019-01-29T03:57:42.527Z,56.71
2019-01-29T03:58:46.503Z,56.70
2019-01-29T03:59:50.485Z,56.73
2019-01-29T04:00:55.341Z,56.49
2019-01-29T04:01:59.650Z,56.44
2019-01-29T04:03:03.625Z,56.42
2019-01-29T04:04:07.874Z,56.46
2019-01-29T04:05:12.086Z,56.56
2019-01-29T04:06:16.372Z,56.63
2019-01-29T04:07:20.717Z,56.68
2019-01-29T04:08:24.695Z,56.66
2019-01-29T04:09:29.094Z,56.67
2019-01-29T04:10:33.063Z,56.59
2019-01-29T04:11:37.601Z,56.59
2019-01-29T04:12:42.065Z,56.68
2019-01-29T04:13:46.290Z,56.70
2019-01-29T04:14:50.520Z,56.50
2019-01-29T04:15:54.731Z,56.52
2019-01-29T04:16:58.725Z,56.64
2019-01-29T04:18:02.730Z,56.58
2019-01-29T04:19:06.662Z,56.56
2019-01-29T04:20:13.370Z,56.52
2019-01-29T04:21:17.347Z,56.46
2019-01-29T04:22:21.353Z,56.55
2019-01-29T04:23:25.309Z,56.65
2019-01-29T04:24:29.782Z,56.71
2019-01-29T04:25:33.927Z,56.67
2019-01-29T04:26:38.088Z,56.58
2019-01-29T04:27:42.318Z,56.61
2019-01-29T04:28:46.980Z,56.59
2019-01-29T04:29:50.962Z,56.51
2019-01-29T04:30:54.955Z,56.40
2019-01-29T04:31:58.893Z,56.29
2019-01-29T04:33:03.133Z,56.27
2019-01-29T04:34:07.027Z,56.23
2019-01-29T04:35:11.013Z,56.11
2019-01-29T04:36:15.239Z,56.14
2019-01-29T04:37:19.472Z,56.11
2019-01-29T04:38:23.615Z,56.05
2019-01-29T04:39:27.514Z,56.00
2019-01-29T04:40:31.656Z,55.86
2019-01-29T04:41:35.621Z,55.87
2019-01-29T04:42:39.916Z,55.89
2019-01-29T04:43:44.249Z,55.91
2019-01-29T04:44:48.222Z,55.93
2019-01-29T04:45:52.196Z,55.92
2019-01-29T04:46:56.172Z,55.83
2019-01-29T04:48:00.411Z,55.79
2019-01-29T04:49:04.640Z,55.73
2019-01-29T04:50:10.749Z,55.81
2019-01-29T04:51:15.218Z,55.85
2019-01-29T04:52:19.199Z,55.75
2019-01-29T04:53:23.506Z,55.72
2019-01-29T04:54:28.401Z,55.77
2019-01-29T04:55:32.608Z,55.88
2019-01-29T04:56:36.582Z,56.04
2019-01-29T04:57:41.216Z,55.89
2019-01-29T04:58:45.204Z,55.76
2019-01-29T04:59:49.199Z,55.72
2019-01-29T05:00:53.628Z,55.68
2019-01-29T05:01:57.935Z,55.74
2019-01-29T05:03:02.567Z,55.75
2019-01-29T05:04:06.859Z,55.69
2019-01-29T05:05:11.351Z,55.62
2019-01-29T05:06:16.291Z,55.71
2019-01-29T05:07:20.598Z,55.71
2019-01-29T05:08:24.587Z,55.71
2019-01-29T05:09:29.261Z,55.69
2019-01-29T05:10:33.539Z,55.71
2019-01-29T05:11:37.843Z,55.70
2019-01-29T05:12:41.851Z,55.65
2019-01-29T05:13:46.039Z,55.40
2019-01-29T05:14:49.948Z,55.31
2019-01-29T05:15:54.557Z,55.18
2019-01-29T05:16:58.756Z,55.36
2019-01-29T05:18:03.065Z,55.43
2019-01-29T05:19:07.515Z,55.51
2019-01-29T05:20:14.035Z,55.66
2019-01-29T05:21:18.284Z,55.78
2019-01-29T05:22:22.549Z,55.79
2019-01-29T05:23:26.860Z,55.82
2019-01-29T05:24:31.165Z,55.93
2019-01-29T05:25:35.580Z,55.92
2019-01-29T05:26:39.802Z,55.88
2019-01-29T05:27:44.107Z,55.94
2019-01-29T05:28:48.399Z,56.00
2019-01-29T05:29:52.705Z,56.06
2019-01-29T05:30:56.937Z,56.01
2019-01-29T05:32:00.916Z,56.04
2019-01-29T05:33:05.139Z,55.99
2019-01-29T05:34:09.551Z,55.92
2019-01-29T05:35:13.737Z,55.97
2019-01-29T05:36:17.711Z,56.03
2019-01-29T05:37:21.679Z,56.12
2019-01-29T05:38:26.084Z,56.02
2019-01-29T05:39:30.075Z,55.93
2019-01-29T05:40:34.048Z,55.90
2019-01-29T05:41:38.026Z,55.84
2019-01-29T05:42:41.996Z,55.80
2019-01-29T05:43:46.236Z,55.87
2019-01-29T05:44:50.458Z,56.00
2019-01-29T05:45:54.877Z,55.98
2019-01-29T05:46:59.007Z,55.93
2019-01-29T05:48:03.239Z,55.96
2019-01-29T05:49:07.233Z,56.00
2019-01-29T05:50:11.853Z,56.01
2019-01-29T05:51:16.108Z,56.05
2019-01-29T05:52:20.333Z,56.02
2019-01-29T05:53:24.311Z,56.10
2019-01-29T05:54:28.301Z,56.16
2019-01-29T05:55:32.516Z,56.12
2019-01-29T05:56:36.745Z,56.13
2019-01-29T05:57:40.887Z,56.04
2019-01-29T05:58:45.360Z,55.84
2019-01-29T05:59:49.346Z,55.74
2019-01-29T06:00:53.333Z,55.79
2019-01-29T06:01:57.311Z,55.89
2019-01-29T06:03:01.788Z,55.97
2019-01-29T06:04:05.771Z,56.00
2019-01-29T06:05:09.885Z,55.86
2019-01-29T06:06:14.097Z,55.84
2019-01-29T06:07:18.334Z,55.70
2019-01-29T06:08:22.304Z,55.78
2019-01-29T06:09:26.568Z,55.97
2019-01-29T06:10:31.056Z,56.16
2019-01-29T06:11:35.037Z,56.30
2019-01-29T06:12:39.252Z,56.39
2019-01-29T06:13:43.157Z,56.43
2019-01-29T06:14:47.559Z,56.41
2019-01-29T06:15:51.812Z,56.39
2019-01-29T06:16:56.219Z,56.42
2019-01-29T06:18:00.528Z,56.29
2019-01-29T06:19:04.729Z,56.18
2019-01-29T06:20:12.272Z,56.15
2019-01-29T06:21:16.513Z,56.12
2019-01-29T06:22:20.850Z,56.17
2019-01-29T06:23:25.150Z,56.15
2019-01-29T06:24:29.505Z,56.06
2019-01-29T06:25:33.761Z,56.05
2019-01-29T06:26:37.783Z,55.99
2019-01-29T06:27:41.767Z,55.95
2019-01-29T06:28:45.980Z,55.85
2019-01-29T06:29:50.135Z,55.71
2019-01-29T06:30:54.672Z,55.57
2019-01-29T06:31:58.991Z,55.59
2019-01-29T06:33:03.318Z,55.58
2019-01-29T06:34:07.353Z,55.57
2019-01-29T06:35:13.138Z,55.51
2019-01-29T06:36:17.386Z,55.51
2019-01-29T06:37:21.678Z,55.50
2019-01-29T06:38:25.706Z,55.43
2019-01-29T06:39:30.278Z,55.49
2019-01-29T06:40:36.224Z,55.51
2019-01-29T06:41:40.213Z,55.88
2019-01-29T06:42:44.532Z,56.62
2019-01-29T06:43:49.046Z,56.72
2019-01-29T06:44:53.568Z,57.42
2019-01-29T06:45:57.564Z,58.51
2019-01-29T06:47:01.473Z,58.83
2019-01-29T06:48:05.912Z,58.64
2019-01-29T06:49:10.153Z,58.60
2019-01-29T06:50:16.241Z,58.65
2019-01-29T06:51:20.410Z,58.03
2019-01-29T06:52:24.747Z,57.84
2019-01-29T06:53:28.971Z,57.23
2019-01-29T06:54:34.393Z,57.20
2019-01-29T06:55:38.986Z,57.95
2019-01-29T06:56:43.222Z,57.92
2019-01-29T06:57:55.230Z,57.49
2019-01-29T06:58:53.162Z,57.86
2019-01-29T06:59:57.062Z,57.82
2019-01-29T07:01:01.296Z,57.91
2019-01-29T07:02:05.524Z,57.67
2019-01-29T07:03:09.746Z,57.36
2019-01-29T07:04:13.969Z,57.32
2019-01-29T07:05:18.262Z,57.05
2019-01-29T07:06:22.507Z,56.81
2019-01-29T07:07:26.410Z,57.05
2019-01-29T07:08:30.915Z,57.18
2019-01-29T07:09:35.307Z,56.89
2019-01-29T07:10:39.277Z,56.87
2019-01-29T07:11:43.262Z,57.05
2019-01-29T07:12:47.235Z,56.77
2019-01-29T07:13:51.462Z,56.48
2019-01-29T07:14:56.016Z,56.23
2019-01-29T07:16:07.651Z,55.81
2019-01-29T07:17:22.045Z,55.61
2019-01-29T07:18:36.196Z,55.76
2019-01-29T07:19:51.459Z,55.53
2019-01-29T07:20:55.795Z,55.75
2019-01-29T07:22:00.106Z,55.58
2019-01-29T07:23:04.688Z,55.39
2019-01-29T07:24:09.022Z,55.62
2019-01-29T07:25:13.691Z,55.86
2019-01-29T07:26:17.740Z,56.13
2019-01-29T07:27:22.011Z,56.32
2019-01-29T07:28:26.430Z,56.31
2019-01-29T07:29:30.480Z,56.55
2019-01-29T07:30:34.462Z,56.38
2019-01-29T07:31:38.705Z,55.86
2019-01-29T07:32:42.947Z,55.57
2019-01-29T07:33:47.157Z,55.74
2019-01-29T07:34:51.164Z,55.61
2019-01-29T07:35:55.487Z,55.62
2019-01-29T07:36:59.826Z,55.57
2019-01-29T07:38:04.043Z,55.62
2019-01-29T07:39:10.748Z,55.74
2019-01-29T07:40:14.969Z,55.32
2019-01-29T07:41:19.174Z,55.20
2019-01-29T07:42:23.176Z,55.49
2019-01-29T07:43:27.232Z,55.66
2019-01-29T07:44:31.208Z,55.23
2019-01-29T07:45:35.198Z,54.79
2019-01-29T07:46:39.198Z,55.04
2019-01-29T07:47:43.921Z,55.11
2019-01-29T07:48:48.080Z,54.94
2019-01-29T07:49:52.107Z,54.57
2019-01-29T07:50:56.159Z,54.54
2019-01-29T07:52:00.162Z,54.58
2019-01-29T07:53:04.596Z,54.70
2019-01-29T07:54:08.901Z,54.86
2019-01-29T07:55:12.984Z,55.17
2019-01-29T07:56:17.317Z,55.06
2019-01-29T07:57:21.816Z,54.67
2019-01-29T07:58:26.053Z,54.50
2019-01-29T07:59:33.193Z,54.60
2019-01-29T08:00:36.224Z,54.55
2019-01-29T08:01:40.442Z,54.43
2019-01-29T08:02:44.722Z,54.36
2019-01-29T08:03:48.630Z,54.08
2019-01-29T08:04:52.778Z,53.91
2019-01-29T08:05:57.017Z,53.79
2019-01-29T08:07:01.029Z,53.79
2019-01-29T08:08:05.598Z,53.76
2019-01-29T08:09:11.212Z,54.03
2019-01-29T08:10:15.438Z,53.95
2019-01-29T08:11:19.668Z,53.95
2019-01-29T08:12:23.665Z,53.97
2019-01-29T08:13:27.903Z,54.00
2019-01-29T08:14:32.260Z,53.96
2019-01-29T08:15:37.006Z,54.00
2019-01-29T08:16:41.227Z,53.85
2019-01-29T08:17:45.488Z,53.96
2019-01-29T08:18:49.600Z,54.02
2019-01-29T08:19:53.592Z,53.91
2019-01-29T08:20:58.076Z,53.74
2019-01-29T08:22:02.047Z,53.77
2019-01-29T08:23:06.044Z,53.86
2019-01-29T08:24:10.280Z,53.87
2019-01-29T08:25:14.328Z,53.85
2019-01-29T08:26:18.576Z,53.75
2019-01-29T08:27:22.801Z,53.82
2019-01-29T08:28:27.092Z,53.87
2019-01-29T08:29:31.316Z,53.69
2019-01-29T08:30:35.571Z,53.77
2019-01-29T08:31:40.099Z,53.77
2019-01-29T08:32:45.020Z,53.86
2019-01-29T08:33:49.555Z,53.83
2019-01-29T08:34:54.149Z,53.79
2019-01-29T08:35:58.433Z,53.84
2019-01-29T08:37:02.468Z,53.92
2019-01-29T08:38:06.489Z,53.94
2019-01-29T08:39:11.075Z,54.02
2019-01-29T08:40:15.488Z,54.02
2019-01-29T08:41:19.798Z,54.06
2019-01-29T08:42:24.230Z,54.12
2019-01-29T08:43:28.101Z,54.15
2019-01-29T08:44:32.181Z,54.26
2019-01-29T08:45:36.527Z,54.28
2019-01-29T08:46:41.232Z,54.23
2019-01-29T08:47:46.027Z,54.09
2019-01-29T08:48:50.707Z,53.91
2019-01-29T08:49:54.972Z,54.00
2019-01-29T08:50:58.965Z,53.96
2019-01-29T08:52:03.259Z,53.92
2019-01-29T08:53:07.593Z,53.93
2019-01-29T08:54:11.993Z,53.83
2019-01-29T08:55:16.080Z,53.94
2019-01-29T08:56:20.313Z,53.99
2019-01-29T08:57:24.313Z,54.01
2019-01-29T08:58:28.929Z,53.89
2019-01-29T08:59:32.945Z,53.84
2019-01-29T09:00:37.154Z,53.73
2019-01-29T09:01:41.545Z,53.73
2019-01-29T09:02:47.853Z,53.70
2019-01-29T09:03:51.700Z,53.83
2019-01-29T09:04:56.146Z,53.95
2019-01-29T09:06:00.160Z,54.06
2019-01-29T09:07:04.420Z,54.11
2019-01-29T09:08:08.408Z,53.99
2019-01-29T09:09:12.409Z,53.93
2019-01-29T09:10:18.848Z,53.97
2019-01-29T09:11:22.934Z,54.01
2019-01-29T09:12:27.264Z,53.68
2019-01-29T09:13:31.521Z,53.52
2019-01-29T09:14:35.584Z,53.51
2019-01-29T09:15:40.007Z,53.56
2019-01-29T09:16:44.519Z,53.57
2019-01-29T09:17:48.775Z,53.70
2019-01-29T09:18:52.753Z,53.65
2019-01-29T09:19:56.741Z,53.58
2019-01-29T09:21:00.993Z,53.55
2019-01-29T09:22:05.212Z,53.42
2019-01-29T09:23:09.690Z,53.35
2019-01-29T09:24:13.672Z,53.21
2019-01-29T09:25:20.884Z,53.24
2019-01-29T09:26:23.771Z,53.17
2019-01-29T09:27:27.931Z,53.09
2019-01-29T09:28:32.420Z,53.07
2019-01-29T09:29:37.216Z,53.08
2019-01-29T09:30:41.457Z,53.08
2019-01-29T09:31:45.691Z,53.17
2019-01-29T09:32:50.030Z,53.17
2019-01-29T09:33:54.264Z,53.14
2019-01-29T09:34:58.181Z,53.03
2019-01-29T09:36:02.418Z,52.98
2019-01-29T09:37:06.403Z,52.93
2019-01-29T09:38:10.631Z,52.94
2019-01-29T09:39:14.607Z,52.78
2019-01-29T09:40:19.282Z,52.70
2019-01-29T09:41:23.514Z,52.60
2019-01-29T09:42:27.746Z,52.54
2019-01-29T09:43:32.173Z,52.52
2019-01-29T09:44:36.330Z,52.51
2019-01-29T09:45:40.536Z,52.50
2019-01-29T09:46:44.797Z,52.52
2019-01-29T09:47:49.020Z,52.46
2019-01-29T09:48:53.004Z,52.40
2019-01-29T09:49:57.240Z,52.34
2019-01-29T09:51:01.565Z,52.27
2019-01-29T09:52:05.787Z,52.30
2019-01-29T09:53:10.073Z,52.17
2019-01-29T09:54:14.456Z,52.13
2019-01-29T09:55:28.174Z,52.18
2019-01-29T09:56:25.533Z,52.22
2019-01-29T09:57:30.275Z,51.97
2019-01-29T09:58:34.585Z,51.85
2019-01-29T09:59:38.893Z,51.75
2019-01-29T10:00:43.703Z,51.64
2019-01-29T10:01:47.702Z,51.51
2019-01-29T10:02:51.681Z,51.45
2019-01-29T10:03:56.026Z,51.51
2019-01-29T10:05:00.348Z,51.60
2019-01-29T10:06:04.640Z,51.54
2019-01-29T10:07:09.155Z,51.55
2019-01-29T10:08:13.145Z,51.54
2019-01-29T10:09:17.136Z,51.57
2019-01-29T10:10:21.112Z,51.47
2019-01-29T10:11:25.362Z,51.48
2019-01-29T10:12:29.975Z,51.50
2019-01-29T10:13:33.965Z,51.45
2019-01-29T10:14:37.956Z,51.54
2019-01-29T10:15:42.600Z,51.47
2019-01-29T10:16:46.582Z,51.39
2019-01-29T10:17:50.900Z,51.25
2019-01-29T10:18:55.106Z,51.10
2019-01-29T10:20:02.912Z,51.02
2019-01-29T10:21:05.764Z,51.14
2019-01-29T10:22:10.148Z,51.30
2019-01-29T10:23:14.692Z,51.42
2019-01-29T10:24:18.686Z,51.44
2019-01-29T10:25:23.004Z,51.50
2019-01-29T10:26:27.005Z,51.51
2019-01-29T10:27:31.621Z,51.48
2019-01-29T10:28:35.611Z,51.45
2019-01-29T10:29:39.846Z,51.43
2019-01-29T10:30:44.554Z,51.39
2019-01-29T10:31:48.549Z,51.37
2019-01-29T10:32:52.854Z,51.44
2019-01-29T10:33:57.164Z,51.30
2019-01-29T10:35:01.470Z,51.28
2019-01-29T10:36:05.761Z,51.32
2019-01-29T10:37:09.790Z,51.37
2019-01-29T10:38:14.089Z,51.17
2019-01-29T10:39:18.468Z,50.93
2019-01-29T10:40:23.559Z,50.70
2019-01-29T10:41:28.143Z,50.62
2019-01-29T10:42:32.143Z,50.59
2019-01-29T10:43:36.372Z,50.63
2019-01-29T10:44:40.653Z,50.57
2019-01-29T10:45:44.963Z,50.56
2019-01-29T10:46:49.269Z,50.67
2019-01-29T10:47:53.259Z,50.66
2019-01-29T10:48:57.884Z,50.58
2019-01-29T10:50:02.196Z,50.54
2019-01-29T10:51:06.285Z,50.49
2019-01-29T10:52:10.602Z,50.38
2019-01-29T10:53:14.732Z,50.26
2019-01-29T10:54:18.720Z,50.09
2019-01-29T10:55:23.366Z,49.96
2019-01-29T10:56:27.634Z,49.76
2019-01-29T10:57:31.642Z,49.50
2019-01-29T10:58:35.692Z,49.51
2019-01-29T10:59:39.984Z,49.59
2019-01-29T11:00:44.325Z,49.61
2019-01-29T11:01:48.965Z,49.57
2019-01-29T11:02:53.184Z,49.60
2019-01-29T11:03:57.182Z,49.52
2019-01-29T11:05:01.481Z,49.47
2019-01-29T11:06:05.938Z,49.57
2019-01-29T11:07:09.929Z,49.62
2019-01-29T11:08:14.180Z,49.50
2019-01-29T11:09:25.394Z,49.45
2019-01-29T11:10:24.148Z,49.57
2019-01-29T11:11:28.147Z,49.64
2019-01-29T11:12:32.138Z,49.70
2019-01-29T11:13:36.758Z,49.72
2019-01-29T11:14:40.745Z,49.52
2019-01-29T11:15:44.803Z,49.41
2019-01-29T11:16:49.107Z,49.48
2019-01-29T11:17:53.195Z,49.51
2019-01-29T11:19:03.168Z,49.42
2019-01-29T11:20:03.392Z,49.37
2019-01-29T11:21:07.709Z,49.46
2019-01-29T11:22:11.937Z,49.63
2019-01-29T11:23:16.313Z,49.63
2019-01-29T11:24:20.289Z,49.66
2019-01-29T11:25:25.970Z,49.74
2019-01-29T11:26:30.191Z,49.77
2019-01-29T11:27:34.106Z,49.83
2019-01-29T11:28:38.345Z,49.83
2019-01-29T11:29:42.564Z,49.86
2019-01-29T11:30:47.090Z,49.86
2019-01-29T11:31:51.570Z,49.87
2019-01-29T11:32:55.551Z,49.79
2019-01-29T11:33:59.801Z,49.72
2019-01-29T11:35:03.985Z,49.81
2019-01-29T11:36:08.462Z,49.90
2019-01-29T11:37:12.772Z,49.65
2019-01-29T11:38:16.753Z,49.53
2019-01-29T11:39:21.086Z,49.52
2019-01-29T11:40:26.643Z,49.56
2019-01-29T11:41:31.150Z,49.58
2019-01-29T11:42:35.136Z,49.53
2019-01-29T11:43:39.413Z,49.51
2019-01-29T11:44:43.593Z,49.55
2019-01-29T11:45:50.776Z,49.65
2019-01-29T11:46:54.749Z,49.85
2019-01-29T11:47:58.901Z,49.92
2019-01-29T11:49:03.149Z,50.02
2019-01-29T11:50:08.168Z,50.12
2019-01-29T11:51:12.469Z,50.23
2019-01-29T11:52:16.712Z,50.27
2019-01-29T11:53:20.772Z,50.34
2019-01-29T11:54:24.835Z,50.45
2019-01-29T11:55:28.825Z,50.56
2019-01-29T11:56:33.059Z,50.63
2019-01-29T11:57:37.048Z,50.58
2019-01-29T11:58:41.883Z,50.57
2019-01-29T11:59:46.479Z,50.63
2019-01-29T12:00:54.947Z,50.69
2019-01-29T12:01:59.190Z,50.76
2019-01-29T12:03:03.646Z,50.70
2019-01-29T12:04:07.950Z,50.70
2019-01-29T12:05:12.378Z,50.77
2019-01-29T12:06:16.784Z,50.78
2019-01-29T12:07:20.776Z,50.64
2019-01-29T12:08:25.104Z,50.39
2019-01-29T12:09:29.696Z,50.24
2019-01-29T12:10:34.107Z,50.23
2019-01-29T12:11:38.721Z,50.26
2019-01-29T12:12:42.975Z,50.35
2019-01-29T12:13:47.214Z,50.42
2019-01-29T12:14:51.850Z,50.37
2019-01-29T12:15:55.839Z,50.23
2019-01-29T12:17:00.162Z,50.07
2019-01-29T12:18:04.588Z,49.98
2019-01-29T12:19:08.585Z,49.92
2019-01-29T12:20:13.956Z,49.89
2019-01-29T12:21:17.975Z,49.88
2019-01-29T12:22:22.028Z,49.89
2019-01-29T12:23:26.016Z,49.77
2019-01-29T12:24:30.031Z,49.77
2019-01-29T12:25:34.464Z,49.79
2019-01-29T12:26:38.475Z,49.82
2019-01-29T12:27:42.458Z,49.77
2019-01-29T12:28:47.316Z,49.74
2019-01-29T12:29:51.319Z,49.73
2019-01-29T12:30:55.754Z,49.68
2019-01-29T12:31:59.984Z,49.68
2019-01-29T12:33:07.039Z,49.66
2019-01-29T12:34:11.392Z,49.62
2019-01-29T12:35:15.387Z,49.50
2019-01-29T12:36:19.619Z,49.37
2019-01-29T12:37:23.880Z,49.19
2019-01-29T12:38:28.107Z,49.11
2019-01-29T12:39:32.045Z,49.08
2019-01-29T12:40:37.096Z,48.94
2019-01-29T12:41:41.501Z,48.87
2019-01-29T12:42:45.794Z,48.67
2019-01-29T12:43:50.014Z,48.48
2019-01-29T12:44:54.253Z,48.33
2019-01-29T12:45:58.570Z,48.23
2019-01-29T12:47:02.549Z,48.34
2019-01-29T12:48:07.121Z,48.40
2019-01-29T12:49:11.094Z,48.45
2019-01-29T12:50:18.058Z,48.28
2019-01-29T12:51:37.073Z,48.30
2019-01-29T12:52:46.390Z,48.24
2019-01-29T12:53:50.366Z,48.28
2019-01-29T12:54:54.341Z,48.33
2019-01-29T12:55:58.601Z,48.33
2019-01-29T12:57:03.079Z,48.22
2019-01-29T12:58:07.727Z,48.19
2019-01-29T12:59:11.740Z,48.22
2019-01-29T13:00:17.013Z,48.34
2019-01-29T13:01:20.933Z,48.31
2019-01-29T13:02:24.909Z,48.17
2019-01-29T13:03:28.882Z,48.00
2019-01-29T13:04:33.292Z,47.84
2019-01-29T13:05:37.783Z,47.65
2019-01-29T13:06:41.943Z,47.48
2019-01-29T13:07:46.166Z,47.41
2019-01-29T13:08:50.146Z,47.35
2019-01-29T13:09:54.456Z,47.35
2019-01-29T13:10:58.852Z,47.42
2019-01-29T13:12:03.645Z,47.41
2019-01-29T13:13:08.196Z,47.37
2019-01-29T13:14:12.756Z,47.27
2019-01-29T13:15:19.419Z,47.21
2019-01-29T13:16:23.426Z,47.05
2019-01-29T13:17:27.345Z,46.98
2019-01-29T13:18:31.934Z,46.92
2019-01-29T13:19:36.187Z,46.88
2019-01-29T13:20:40.271Z,46.89
2019-01-29T13:21:44.272Z,46.87
2019-01-29T13:22:48.321Z,46.65
2019-01-29T13:23:52.976Z,46.42
2019-01-29T13:24:57.272Z,46.21
2019-01-29T13:26:01.278Z,46.10
2019-01-29T13:27:05.346Z,46.01
2019-01-29T13:28:09.952Z,45.87
2019-01-29T13:29:13.951Z,45.83
2019-01-29T13:30:24.275Z,45.72
2019-01-29T13:31:28.278Z,45.33
2019-01-29T13:32:32.269Z,45.36
2019-01-29T13:33:36.548Z,45.58
2019-01-29T13:34:40.622Z,45.83
2019-01-29T13:35:45.165Z,46.01
2019-01-29T13:36:49.165Z,46.03
2019-01-29T13:37:53.780Z,45.99
2019-01-29T13:38:57.768Z,45.97
2019-01-29T13:40:02.532Z,46.03
2019-01-29T13:41:07.222Z,46.16
2019-01-29T13:42:11.367Z,46.29
2019-01-29T13:43:15.281Z,46.43
2019-01-29T13:44:19.298Z,46.53
2019-01-29T13:45:23.774Z,46.57
2019-01-29T13:46:27.777Z,46.43
2019-01-29T13:47:31.763Z,46.31
2019-01-29T13:48:35.788Z,46.24
2019-01-29T13:49:40.088Z,46.18